Private Wetterstation Wechselburg
Wetterdaten: Mittwoch, 15.12.2021
Datum Zeit Temp. +2m Bodentemp. Temp.+5cm Temp. Wind Windchill X Diff Temp. Feuchte +2m Feuchte +5cm Luftdruck Regen Wind Richtung Richtung Sonnenschein Taupunkt Windchill Windben
15.12.2021 00:00 3,9 C 8,9 C 5,0 C 5,9 C 5,9 C 2,0 C 88 % 95 % 1029,6 hPa 0,0 l/m 0,5 km/h (0 Bft) SW 225 0 min 2,1 C 5,9 C 0,0 km/h (0 Bft)
15.12.2021 00:05 3,9 C 8,9 C 4,9 C 5,9 C 5,9 C 2,0 C 88 % 95 % 1029,6 hPa 0,0 l/m 0,5 km/h (0 Bft) S-SW 202 0 min 2,1 C 5,9 C 0,0 km/h (0 Bft)
15.12.2021 00:10 3,9 C 8,9 C 4,9 C 5,9 C 5,9 C 2,0 C 88 % 95 % 1029,9 hPa 0,0 l/m 0,6 km/h (0 Bft) SO 135 0 min 2,1 C 5,9 C 1,8 km/h (1 Bft)
15.12.2021 00:15 3,9 C 8,9 C 4,8 C 5,8 C 5,8 C 1,9 C 88 % 95 % 1029,9 hPa 0,0 l/m 0,3 km/h (0 Bft) SW 225 0 min 2,1 C 5,8 C 0,0 km/h (0 Bft)
15.12.2021 00:20 3,9 C 9,0 C 4,8 C 5,7 C 5,7 C 1,8 C 88 % 95 % 1029,9 hPa 0,0 l/m 0,0 km/h (0 Bft) SO 135 0 min 2,1 C 5,7 C 0,0 km/h (0 Bft)
15.12.2021 00:25 3,7 C 9,0 C 4,7 C 5,6 C 5,6 C 1,9 C 88 % 94 % 1029,9 hPa 0,0 l/m 0,0 km/h (0 Bft) SO 135 0 min 1,9 C 5,6 C 0,0 km/h (0 Bft)
15.12.2021 00:30 3,7 C 9,0 C 4,7 C 5,6 C 5,6 C 1,9 C 88 % 94 % 1029,9 hPa 0,0 l/m 0,0 km/h (0 Bft) SO 135 0 min 1,9 C 5,6 C 0,0 km/h (0 Bft)
15.12.2021 00:35 3,6 C 9,0 C 4,6 C 5,6 C 5,6 C 2,0 C 88 % 94 % 1029,9 hPa 0,0 l/m 0,0 km/h (0 Bft) SO 135 0 min 1,8 C 5,6 C 0,0 km/h (0 Bft)
15.12.2021 00:40 3,6 C 9,0 C 4,6 C 5,5 C 5,5 C 1,9 C 88 % 94 % 1029,9 hPa 0,0 l/m 0,0 km/h (0 Bft) S 180 0 min 1,8 C 5,5 C 0,0 km/h (0 Bft)
15.12.2021 00:45 3,7 C 9,0 C 4,6 C 5,4 C 5,4 C 1,7 C 88 % 94 % 1029,9 hPa 0,0 l/m 0,0 km/h (0 Bft) S 180 0 min 1,9 C 5,4 C 0,0 km/h (0 Bft)
15.12.2021 00:50 3,7 C 9,0 C 4,7 C 5,5 C 5,5 C 1,8 C 88 % 94 % 1029,6 hPa 0,0 l/m 0,2 km/h (0 Bft) SW 225 0 min 1,9 C 5,5 C 0,0 km/h (0 Bft)
15.12.2021 00:55 3,6 C 9,0 C 4,6 C 5,4 C 5,4 C 1,8 C 88 % 94 % 1029,6 hPa 0,0 l/m 0,3 km/h (0 Bft) S 180 0 min 1,8 C 5,4 C 3,1 km/h (1 Bft)
15.12.2021 01:00 3,6 C 8,9 C 4,5 C 5,4 C 5,4 C 1,8 C 88 % 94 % 1029,6 hPa 0,0 l/m 0,2 km/h (0 Bft) S-SO 157 0 min 1,8 C 5,4 C 0,0 km/h (0 Bft)
15.12.2021 01:05 3,7 C 8,9 C 4,6 C 5,4 C 5,4 C 1,7 C 88 % 94 % 1029,6 hPa 0,0 l/m 0,5 km/h (0 Bft) SO 135 0 min 1,9 C 5,4 C 3,4 km/h (1 Bft)
15.12.2021 01:10 3,6 C 8,9 C 4,6 C 5,5 C 5,5 C 1,9 C 88 % 94 % 1029,8 hPa 0,0 l/m 0,6 km/h (0 Bft) SO 135 0 min 1,8 C 5,5 C 1,6 km/h (1 Bft)
15.12.2021 01:15 3,6 C 8,9 C 4,6 C 5,5 C 5,5 C 1,9 C 88 % 94 % 1029,8 hPa 0,0 l/m 0,5 km/h (0 Bft) SO 135 0 min 1,8 C 5,5 C 0,0 km/h (0 Bft)
15.12.2021 01:20 3,6 C 8,9 C 4,6 C 5,4 C 5,4 C 1,8 C 88 % 94 % 1029,8 hPa 0,0 l/m 0,6 km/h (0 Bft) S-SO 157 0 min 1,8 C 5,4 C 0,0 km/h (0 Bft)
15.12.2021 01:25 3,6 C 8,9 C 4,5 C 5,3 C 5,3 C 1,7 C 88 % 94 % 1029,8 hPa 0,0 l/m 0,6 km/h (0 Bft) SO 135 0 min 1,8 C 5,3 C 5,0 km/h (1 Bft)
15.12.2021 01:30 3,6 C 8,9 C 4,5 C 5,2 C 5,2 C 1,6 C 88 % 94 % 1029,6 hPa 0,0 l/m 0,2 km/h (0 Bft) S-SW 202 0 min 1,8 C 5,2 C 0,0 km/h (0 Bft)
15.12.2021 01:35 3,5 C 8,9 C 4,5 C 5,3 C 5,3 C 1,8 C 88 % 94 % 1029,6 hPa 0,0 l/m 0,2 km/h (0 Bft) S-SW 202 0 min 1,7 C 5,3 C 0,0 km/h (0 Bft)
15.12.2021 01:40 3,5 C 8,9 C 4,5 C 5,3 C 5,3 C 1,8 C 88 % 94 % 1029,6 hPa 0,0 l/m 0,2 km/h (0 Bft) S-SO 157 0 min 1,7 C 5,3 C 0,0 km/h (0 Bft)
15.12.2021 01:45 3,5 C 8,9 C 4,4 C 5,2 C 5,2 C 1,7 C 88 % 94 % 1029,6 hPa 0,0 l/m 0,2 km/h (0 Bft) S-SO 157 0 min 1,7 C 5,2 C 1,8 km/h (1 Bft)
15.12.2021 01:50 3,5 C 8,9 C 4,3 C 5,2 C 5,2 C 1,7 C 88 % 94 % 1030,0 hPa 0,0 l/m 0,5 km/h (0 Bft) S 180 0 min 1,7 C 5,2 C 2,1 km/h (1 Bft)
15.12.2021 01:55 3,4 C 8,9 C 4,3 C 5,1 C 5,1 C 1,7 C 88 % 95 % 1030,0 hPa 0,0 l/m 0,6 km/h (0 Bft) S-SW 202 0 min 1,6 C 5,1 C 0,0 km/h (0 Bft)
15.12.2021 02:00 3,5 C 8,9 C 4,2 C 5,0 C 5,0 C 1,5 C 88 % 95 % 1030,0 hPa 0,0 l/m 0,3 km/h (0 Bft) S-SO 157 0 min 1,7 C 5,0 C 0,0 km/h (0 Bft)
15.12.2021 02:05 3,5 C 8,9 C 4,3 C 5,0 C 5,0 C 1,5 C 88 % 95 % 1030,0 hPa 0,0 l/m 0,0 km/h (0 Bft) S-SW 202 0 min 1,7 C 5,0 C 0,0 km/h (0 Bft)
15.12.2021 02:10 3,5 C 8,9 C 4,3 C 5,1 C 5,1 C 1,6 C 88 % 95 % 1029,8 hPa 0,0 l/m 0,0 km/h (0 Bft) SO 135 0 min 1,7 C 5,1 C 0,0 km/h (0 Bft)
15.12.2021 02:15 3,4 C 8,9 C 4,3 C 5,2 C 5,2 C 1,8 C 88 % 95 % 1029,8 hPa 0,0 l/m 0,0 km/h (0 Bft) O-SO 112 0 min 1,6 C 5,2 C 0,0 km/h (0 Bft)
15.12.2021 02:20 3,3 C 8,9 C 4,3 C 5,2 C 5,2 C 1,9 C 88 % 95 % 1029,8 hPa 0,0 l/m 0,0 km/h (0 Bft) O-SO 112 0 min 1,5 C 5,2 C 0,0 km/h (0 Bft)
15.12.2021 02:25 3,3 C 8,9 C 4,2 C 5,2 C 5,2 C 1,9 C 88 % 95 % 1029,8 hPa 0,0 l/m 0,0 km/h (0 Bft) O-SO 112 0 min 1,5 C 5,2 C 0,0 km/h (0 Bft)
15.12.2021 02:30 3,3 C 9,1 C 4,2 C 5,2 C 5,2 C 1,9 C 88 % 95 % 1029,9 hPa 0,0 l/m 0,0 km/h (0 Bft) O-SO 112 0 min 1,5 C 5,2 C 0,0 km/h (0 Bft)
15.12.2021 02:35 3,3 C 8,9 C 4,2 C 5,2 C 5,2 C 1,9 C 88 % 95 % 1029,9 hPa 0,0 l/m 0,0 km/h (0 Bft) O-NO 67 0 min 1,5 C 5,2 C 0,0 km/h (0 Bft)
15.12.2021 02:40 3,2 C 8,9 C 4,2 C 5,2 C 5,2 C 2,0 C 88 % 95 % 1029,9 hPa 0,0 l/m 0,0 km/h (0 Bft) O-NO 67 0 min 1,4 C 5,2 C 0,0 km/h (0 Bft)
15.12.2021 02:45 3,3 C 9,1 C 4,2 C 5,2 C 5,2 C 1,9 C 88 % 95 % 1029,9 hPa 0,0 l/m 0,0 km/h (0 Bft) O-NO 67 0 min 1,5 C 5,2 C 0,0 km/h (0 Bft)
15.12.2021 02:50 3,3 C 8,9 C 4,3 C 5,2 C 5,2 C 1,9 C 88 % 95 % 1029,9 hPa 0,0 l/m 0,0 km/h (0 Bft) O-NO 67 0 min 1,5 C 5,2 C 0,0 km/h (0 Bft)
15.12.2021 02:55 3,2 C 8,9 C 4,2 C 5,3 C 5,3 C 2,1 C 88 % 95 % 1029,9 hPa 0,0 l/m 0,0 km/h (0 Bft) O-NO 67 0 min 1,4 C 5,3 C 0,0 km/h (0 Bft)
15.12.2021 03:00 3,2 C 9,1 C 4,3 C 5,3 C 5,3 C 2,1 C 88 % 95 % 1029,9 hPa 0,0 l/m 0,0 km/h (0 Bft) SO 135 0 min 1,4 C 5,3 C 0,0 km/h (0 Bft)
15.12.2021 03:05 3,3 C 8,9 C 4,3 C 5,3 C 5,3 C 2,0 C 88 % 94 % 1029,9 hPa 0,0 l/m 0,0 km/h (0 Bft) SO 135 0 min 1,5 C 5,3 C 0,0 km/h (0 Bft)
15.12.2021 03:10 3,3 C 8,9 C 4,3 C 5,3 C 5,3 C 2,0 C 88 % 94 % 1030,1 hPa 0,0 l/m 0,2 km/h (0 Bft) SW 225 0 min 1,5 C 5,3 C 3,1 km/h (1 Bft)
15.12.2021 03:15 3,3 C 8,9 C 4,3 C 5,4 C 5,4 C 2,1 C 88 % 94 % 1030,1 hPa 0,0 l/m 0,2 km/h (0 Bft) SW 225 0 min 1,5 C 5,4 C 0,0 km/h (0 Bft)
15.12.2021 03:20 3,3 C 8,9 C 4,3 C 5,3 C 5,3 C 2,0 C 88 % 95 % 1030,1 hPa 0,0 l/m 0,2 km/h (0 Bft) S-SO 157 0 min 1,5 C 5,3 C 0,0 km/h (0 Bft)
15.12.2021 03:25 3,3 C 8,9 C 4,2 C 5,3 C 5,3 C 2,0 C 88 % 95 % 1030,1 hPa 0,0 l/m 0,0 km/h (0 Bft) O 90 0 min 1,5 C 5,3 C 0,0 km/h (0 Bft)
15.12.2021 03:30 3,3 C 8,9 C 4,2 C 5,2 C 5,2 C 1,9 C 88 % 95 % 1029,9 hPa 0,0 l/m 0,0 km/h (0 Bft) O-NO 67 0 min 1,5 C 5,2 C 0,0 km/h (0 Bft)
15.12.2021 03:35 3,3 C 8,9 C 4,2 C 5,2 C 5,2 C 1,9 C 88 % 95 % 1029,9 hPa 0,0 l/m 0,0 km/h (0 Bft) O-NO 67 0 min 1,5 C 5,2 C 0,0 km/h (0 Bft)
15.12.2021 03:40 3,2 C 8,9 C 4,1 C 5,0 C 5,0 C 1,8 C 88 % 95 % 1029,9 hPa 0,0 l/m 0,0 km/h (0 Bft) S 180 0 min 1,4 C 5,0 C 0,0 km/h (0 Bft)
15.12.2021 03:45 3,2 C 8,9 C 4,0 C 4,8 C 4,8 C 1,6 C 88 % 95 % 1029,9 hPa 0,0 l/m 0,0 km/h (0 Bft) W-SW 247 0 min 1,4 C 4,8 C 0,0 km/h (0 Bft)
15.12.2021 03:50 3,2 C 8,9 C 3,9 C 4,7 C 4,7 C 1,5 C 88 % 95 % 1030,2 hPa 0,0 l/m 0,0 km/h (0 Bft) W 270 0 min 1,4 C 4,7 C 0,0 km/h (0 Bft)
15.12.2021 03:55 3,2 C 8,9 C 3,9 C 4,7 C 4,7 C 1,5 C 88 % 95 % 1030,2 hPa 0,0 l/m 0,0 km/h (0 Bft) W-SW 247 0 min 1,4 C 4,7 C 0,0 km/h (0 Bft)
15.12.2021 04:00 3,2 C 8,9 C 3,9 C 4,7 C 4,7 C 1,5 C 88 % 95 % 1030,2 hPa 0,0 l/m 0,0 km/h (0 Bft) W-SW 247 0 min 1,4 C 4,7 C 0,0 km/h (0 Bft)
15.12.2021 04:05 3,1 C 8,9 C 3,9 C 4,7 C 4,7 C 1,6 C 88 % 95 % 1030,2 hPa 0,0 l/m 0,0 km/h (0 Bft) S-SO 157 0 min 1,3 C 4,7 C 0,0 km/h (0 Bft)
15.12.2021 04:10 3,1 C 8,9 C 3,9 C 4,8 C 4,8 C 1,7 C 88 % 95 % 1029,9 hPa 0,0 l/m 0,0 km/h (0 Bft) O-SO 112 0 min 1,3 C 4,8 C 0,0 km/h (0 Bft)
15.12.2021 04:15 3,1 C 8,9 C 4,0 C 5,0 C 5,0 C 1,9 C 88 % 95 % 1029,9 hPa 0,0 l/m 0,0 km/h (0 Bft) S 180 0 min 1,3 C 5,0 C 0,0 km/h (0 Bft)
15.12.2021 04:20 3,1 C 8,9 C 4,1 C 5,1 C 5,1 C 2,0 C 88 % 95 % 1029,9 hPa 0,0 l/m 0,0 km/h (0 Bft) O-SO 112 0 min 1,3 C 5,1 C 0,0 km/h (0 Bft)
15.12.2021 04:25 3,2 C 8,9 C 4,1 C 5,2 C 5,2 C 2,0 C 88 % 95 % 1029,9 hPa 0,0 l/m 0,0 km/h (0 Bft) O-NO 67 0 min 1,4 C 5,2 C 0,0 km/h (0 Bft)
15.12.2021 04:30 3,1 C 8,9 C 4,1 C 5,2 C 5,2 C 2,1 C 88 % 95 % 1030,1 hPa 0,0 l/m 0,0 km/h (0 Bft) SO 135 0 min 1,3 C 5,2 C 2,7 km/h (1 Bft)
15.12.2021 04:35 3,2 C 8,9 C 4,2 C 5,2 C 5,2 C 2,0 C 88 % 95 % 1030,1 hPa 0,0 l/m 0,0 km/h (0 Bft) O-NO 67 0 min 1,4 C 5,2 C 0,0 km/h (0 Bft)
15.12.2021 04:40 3,1 C 8,9 C 4,2 C 5,2 C 5,2 C 2,1 C 88 % 95 % 1030,1 hPa 0,0 l/m 0,0 km/h (0 Bft) NO 45 0 min 1,3 C 5,2 C 0,0 km/h (0 Bft)
15.12.2021 04:45 3,2 C 8,8 C 4,3 C 5,3 C 5,3 C 2,1 C 88 % 95 % 1030,1 hPa 0,0 l/m 0,2 km/h (0 Bft) SO 135 0 min 1,4 C 5,3 C 0,0 km/h (0 Bft)
15.12.2021 04:50 3,2 C 8,8 C 4,3 C 5,4 C 5,4 C 2,2 C 88 % 95 % 1030,1 hPa 0,0 l/m 0,3 km/h (0 Bft) S 180 0 min 1,4 C 5,4 C 2,9 km/h (1 Bft)
15.12.2021 04:55 3,2 C 8,8 C 4,4 C 5,4 C 5,4 C 2,2 C 88 % 95 % 1030,1 hPa 0,0 l/m 0,5 km/h (0 Bft) SO 135 0 min 1,4 C 5,4 C 3,2 km/h (1 Bft)
15.12.2021 05:00 3,2 C 8,8 C 4,4 C 5,4 C 5,4 C 2,2 C 88 % 94 % 1030,1 hPa 0,0 l/m 0,5 km/h (0 Bft) S-SO 157 0 min 1,4 C 5,4 C 0,0 km/h (0 Bft)
15.12.2021 05:05 3,2 C 8,8 C 4,5 C 5,5 C 5,5 C 2,3 C 88 % 95 % 1030,1 hPa 0,0 l/m 0,5 km/h (0 Bft) S 180 0 min 1,4 C 5,5 C 0,0 km/h (0 Bft)
15.12.2021 05:10 3,3 C 8,8 C 4,5 C 5,5 C 5,5 C 2,2 C 88 % 95 % 1030,4 hPa 0,0 l/m 0,6 km/h (0 Bft) W 270 0 min 1,5 C 5,5 C 2,4 km/h (1 Bft)
15.12.2021 05:15 3,3 C 8,8 C 4,5 C 5,6 C 5,6 C 2,3 C 88 % 94 % 1030,4 hPa 0,0 l/m 0,6 km/h (0 Bft) S-SO 157 0 min 1,5 C 5,6 C 2,1 km/h (1 Bft)
15.12.2021 05:20 3,5 C 8,8 C 4,6 C 5,6 C 5,6 C 2,1 C 88 % 94 % 1030,4 hPa 0,0 l/m 1,0 km/h (0 Bft) S 180 0 min 1,7 C 5,6 C 0,0 km/h (0 Bft)
15.12.2021 05:25 3,5 C 8,8 C 4,6 C 5,6 C 5,6 C 2,1 C 88 % 94 % 1030,4 hPa 0,0 l/m 1,3 km/h (1 Bft) SW 225 0 min 1,7 C 5,6 C 1,8 km/h (1 Bft)
15.12.2021 05:30 3,4 C 8,8 C 4,6 C 5,7 C 5,7 C 2,3 C 88 % 95 % 1030,1 hPa 0,0 l/m 1,4 km/h (1 Bft) SO 135 0 min 1,6 C 5,7 C 1,8 km/h (1 Bft)
15.12.2021 05:35 3,5 C 8,8 C 4,6 C 5,7 C 5,7 C 2,2 C 88 % 95 % 1030,1 hPa 0,0 l/m 1,3 km/h (1 Bft) S-SO 157 0 min 1,7 C 5,7 C 4,7 km/h (1 Bft)
15.12.2021 05:40 3,6 C 8,8 C 4,6 C 5,7 C 5,7 C 2,1 C 88 % 94 % 1030,1 hPa 0,0 l/m 1,4 km/h (1 Bft) S-SW 202 0 min 1,8 C 5,7 C 2,1 km/h (1 Bft)
15.12.2021 05:45 3,6 C 8,8 C 4,6 C 5,7 C 5,7 C 2,1 C 88 % 94 % 1030,1 hPa 0,0 l/m 1,8 km/h (1 Bft) S-SO 157 0 min 1,8 C 5,7 C 2,4 km/h (1 Bft)
15.12.2021 05:50 3,6 C 8,8 C 4,6 C 5,7 C 5,7 C 2,1 C 88 % 94 % 1030,1 hPa 0,0 l/m 1,6 km/h (1 Bft) S 180 0 min 1,8 C 5,7 C 5,0 km/h (1 Bft)
15.12.2021 05:55 3,7 C 8,8 C 4,7 C 5,7 C 5,7 C 2,0 C 88 % 94 % 1030,1 hPa 0,0 l/m 2,1 km/h (1 Bft) S-SO 157 0 min 1,9 C 5,7 C 2,6 km/h (1 Bft)
15.12.2021 06:00 3,8 C 8,8 C 4,7 C 5,7 C 5,7 C 1,9 C 88 % 94 % 1030,1 hPa 0,0 l/m 2,6 km/h (1 Bft) S 180 0 min 2,0 C 5,7 C 4,5 km/h (1 Bft)
15.12.2021 06:05 3,9 C 8,8 C 4,7 C 5,7 C 5,7 C 1,8 C 88 % 94 % 1030,1 hPa 0,0 l/m 2,4 km/h (1 Bft) S-SO 157 0 min 2,1 C 5,7 C 6,1 km/h (2 Bft)
15.12.2021 06:10 3,9 C 8,8 C 4,7 C 5,7 C 5,7 C 1,8 C 88 % 94 % 1030,6 hPa 0,0 l/m 1,8 km/h (1 Bft) S 180 0 min 2,1 C 5,7 C 2,3 km/h (1 Bft)
15.12.2021 06:15 3,9 C 8,8 C 4,7 C 5,7 C 5,7 C 1,8 C 88 % 94 % 1030,6 hPa 0,0 l/m 0,6 km/h (0 Bft) SO 135 0 min 2,1 C 5,7 C 1,8 km/h (1 Bft)
15.12.2021 06:20 3,9 C 8,8 C 4,7 C 5,7 C 5,7 C 1,8 C 88 % 94 % 1030,6 hPa 0,0 l/m 0,3 km/h (0 Bft) S 180 0 min 2,1 C 5,7 C 0,0 km/h (0 Bft)
15.12.2021 06:25 4,0 C 8,8 C 4,7 C 5,7 C 5,7 C 1,7 C 88 % 94 % 1030,6 hPa 0,0 l/m 0,6 km/h (0 Bft) S 180 0 min 2,2 C 5,7 C 2,9 km/h (1 Bft)
15.12.2021 06:30 4,0 C 8,8 C 4,7 C 5,6 C 5,6 C 1,6 C 88 % 94 % 1030,6 hPa 0,0 l/m 1,0 km/h (0 Bft) S-SW 202 0 min 2,2 C 5,6 C 4,3 km/h (1 Bft)
15.12.2021 06:35 4,0 C 8,8 C 4,7 C 5,7 C 5,7 C 1,7 C 88 % 94 % 1030,6 hPa 0,0 l/m 1,8 km/h (1 Bft) S 180 0 min 2,2 C 5,7 C 4,2 km/h (1 Bft)
15.12.2021 06:40 4,0 C 8,8 C 4,7 C 5,7 C 5,7 C 1,7 C 88 % 94 % 1030,6 hPa 0,0 l/m 2,4 km/h (1 Bft) S 180 0 min 2,2 C 5,7 C 5,3 km/h (1 Bft)
15.12.2021 06:45 4,1 C 8,8 C 4,7 C 5,7 C 5,7 C 1,6 C 88 % 94 % 1030,6 hPa 0,0 l/m 1,8 km/h (1 Bft) SW 225 0 min 2,3 C 5,7 C 0,0 km/h (0 Bft)
15.12.2021 06:50 4,2 C 8,8 C 4,7 C 5,7 C 5,7 C 1,5 C 88 % 94 % 1030,6 hPa 0,0 l/m 1,1 km/h (1 Bft) SW 225 0 min 2,4 C 5,7 C 0,0 km/h (0 Bft)
15.12.2021 06:55 4,2 C 8,8 C 4,7 C 5,7 C 5,7 C 1,5 C 88 % 94 % 1030,6 hPa 0,0 l/m 0,3 km/h (0 Bft) S-SO 157 0 min 2,4 C 5,7 C 0,0 km/h (0 Bft)
15.12.2021 07:00 4,3 C 8,8 C 4,7 C 5,7 C 5,7 C 1,4 C 88 % 94 % 1030,6 hPa 0,0 l/m 0,3 km/h (0 Bft) S 180 0 min 2,5 C 5,7 C 2,4 km/h (1 Bft)
15.12.2021 07:05 4,2 C 8,8 C 4,7 C 5,7 C 5,7 C 1,5 C 88 % 94 % 1030,6 hPa 0,0 l/m 0,2 km/h (0 Bft) SW 225 0 min 2,4 C 5,7 C 1,8 km/h (1 Bft)
15.12.2021 07:10 4,2 C 8,8 C 4,7 C 5,7 C 5,7 C 1,5 C 88 % 94 % 1030,8 hPa 0,0 l/m 0,3 km/h (0 Bft) W-NW 292 0 min 2,4 C 5,7 C 0,0 km/h (0 Bft)
15.12.2021 07:15 4,3 C 8,8 C 4,7 C 5,6 C 5,6 C 1,3 C 88 % 94 % 1030,8 hPa 0,0 l/m 0,3 km/h (0 Bft) SO 135 0 min 2,5 C 5,6 C 0,0 km/h (0 Bft)
15.12.2021 07:20 4,2 C 8,8 C 4,7 C 5,6 C 5,6 C 1,4 C 88 % 94 % 1030,8 hPa 0,0 l/m 0,2 km/h (0 Bft) S 180 0 min 2,4 C 5,6 C 3,2 km/h (1 Bft)
15.12.2021 07:25 4,3 C 8,8 C 4,7 C 5,6 C 5,6 C 1,3 C 88 % 94 % 1030,8 hPa 0,0 l/m 0,5 km/h (0 Bft) S 180 0 min 2,5 C 5,6 C 3,9 km/h (1 Bft)
15.12.2021 07:30 4,3 C 8,8 C 4,7 C 5,7 C 5,7 C 1,4 C 88 % 94 % 1030,7 hPa 0,0 l/m 1,1 km/h (1 Bft) S 180 0 min 2,5 C 5,7 C 1,9 km/h (1 Bft)
15.12.2021 07:35 4,3 C 8,8 C 4,7 C 5,7 C 5,7 C 1,4 C 88 % 94 % 1030,7 hPa 0,0 l/m 1,0 km/h (0 Bft) S-SO 157 0 min 2,5 C 5,7 C 2,9 km/h (1 Bft)
15.12.2021 07:40 4,4 C 8,8 C 4,7 C 5,7 C 5,7 C 1,3 C 88 % 94 % 1030,7 hPa 0,0 l/m 0,5 km/h (0 Bft) S 180 0 min 2,6 C 5,7 C 1,6 km/h (1 Bft)
15.12.2021 07:45 4,5 C 8,8 C 4,7 C 5,7 C 5,7 C 1,2 C 88 % 94 % 1030,7 hPa 0,0 l/m 1,3 km/h (1 Bft) S-SO 157 0 min 2,7 C 5,7 C 6,8 km/h (2 Bft)
15.12.2021 07:50 4,4 C 8,8 C 4,7 C 5,7 C 5,7 C 1,3 C 88 % 94 % 1030,8 hPa 0,0 l/m 2,3 km/h (1 Bft) S 180 0 min 2,6 C 5,7 C 5,5 km/h (1 Bft)
15.12.2021 07:55 4,5 C 8,8 C 4,7 C 5,8 C 5,8 C 1,3 C 88 % 94 % 1030,8 hPa 0,0 l/m 2,6 km/h (1 Bft) S 180 0 min 2,7 C 5,8 C 3,5 km/h (1 Bft)
15.12.2021 08:00 4,7 C 8,8 C 4,8 C 5,8 C 5,8 C 1,1 C 88 % 95 % 1030,8 hPa 0,0 l/m 1,9 km/h (1 Bft) N-NW 337 0 min 2,9 C 5,8 C 3,1 km/h (1 Bft)
15.12.2021 08:05 4,6 C 8,8 C 4,8 C 5,8 C 5,8 C 1,2 C 88 % 95 % 1030,8 hPa 0,0 l/m 1,3 km/h (1 Bft) S 180 0 min 2,8 C 5,8 C 3,2 km/h (1 Bft)
15.12.2021 08:10 4,7 C 8,8 C 4,7 C 5,9 C 5,9 C 1,2 C 88 % 94 % 1030,9 hPa 0,0 l/m 1,3 km/h (1 Bft) S 180 0 min 2,9 C 5,9 C 4,2 km/h (1 Bft)
15.12.2021 08:15 4,7 C 8,8 C 4,8 C 5,9 C 5,9 C 1,2 C 88 % 95 % 1030,9 hPa 0,0 l/m 0,6 km/h (0 Bft) S 180 0 min 2,9 C 5,9 C 0,0 km/h (0 Bft)
15.12.2021 08:20 4,8 C 8,8 C 4,8 C 5,9 C 5,9 C 1,1 C 88 % 95 % 1030,9 hPa 0,0 l/m 0,8 km/h (0 Bft) S 180 5 min 3,0 C 5,9 C 0,0 km/h (0 Bft)
15.12.2021 08:25 4,8 C 8,8 C 4,9 C 5,9 C 5,9 C 1,1 C 88 % 95 % 1030,9 hPa 0,0 l/m 0,6 km/h (0 Bft) S-SO 157 5 min 3,0 C 5,9 C 0,0 km/h (0 Bft)
15.12.2021 08:30 4,9 C 8,8 C 4,9 C 5,9 C 5,9 C 1,0 C 89 % 95 % 1030,9 hPa 0,0 l/m 0,5 km/h (0 Bft) S 180 5 min 3,2 C 5,9 C 2,1 km/h (1 Bft)
15.12.2021 08:35 4,8 C 8,8 C 4,9 C 6,0 C 6,0 C 1,2 C 88 % 95 % 1030,9 hPa 0,0 l/m 0,8 km/h (0 Bft) SO 135 5 min 3,0 C 6,0 C 0,0 km/h (0 Bft)
15.12.2021 08:40 4,9 C 8,8 C 5,0 C 6,1 C 6,1 C 1,2 C 89 % 95 % 1030,9 hPa 0,0 l/m 1,1 km/h (1 Bft) SW 225 5 min 3,2 C 6,1 C 2,3 km/h (1 Bft)
15.12.2021 08:45 4,9 C 8,8 C 5,0 C 6,1 C 6,1 C 1,2 C 89 % 95 % 1030,9 hPa 0,0 l/m 1,0 km/h (0 Bft) SO 135 5 min 3,2 C 6,1 C 0,0 km/h (0 Bft)
15.12.2021 08:50 4,9 C 8,8 C 5,1 C 6,2 C 6,2 C 1,3 C 89 % 94 % 1031,7 hPa 0,0 l/m 1,0 km/h (0 Bft) S-SO 157 5 min 3,2 C 6,2 C 3,5 km/h (1 Bft)
15.12.2021 08:55 5,1 C 8,8 C 5,1 C 6,2 C 6,2 C 1,1 C 88 % 94 % 1031,7 hPa 0,0 l/m 1,0 km/h (0 Bft) S 180 5 min 3,3 C 6,2 C 4,2 km/h (1 Bft)
15.12.2021 09:00 5,0 C 8,8 C 5,2 C 6,2 C 6,2 C 1,2 C 88 % 94 % 1031,7 hPa 0,0 l/m 0,8 km/h (0 Bft) S 180 5 min 3,2 C 6,2 C 0,0 km/h (0 Bft)
15.12.2021 09:05 5,1 C 8,8 C 5,2 C 6,3 C 6,3 C 1,2 C 88 % 94 % 1031,7 hPa 0,0 l/m 0,8 km/h (0 Bft) S 180 5 min 3,3 C 6,3 C 2,3 km/h (1 Bft)
15.12.2021 09:10 5,2 C 8,8 C 5,3 C 6,3 C 6,3 C 1,1 C 88 % 94 % 1031,6 hPa 0,0 l/m 1,0 km/h (0 Bft) S 180 5 min 3,4 C 6,3 C 0,0 km/h (0 Bft)
15.12.2021 09:15 5,2 C 8,8 C 5,3 C 6,4 C 6,4 C 1,2 C 88 % 94 % 1031,6 hPa 0,0 l/m 0,6 km/h (0 Bft) S 180 0 min 3,4 C 6,4 C 0,0 km/h (0 Bft)
15.12.2021 09:20 5,2 C 8,8 C 5,3 C 6,4 C 6,4 C 1,2 C 88 % 94 % 1031,6 hPa 0,0 l/m 0,3 km/h (0 Bft) O-SO 112 0 min 3,4 C 6,4 C 0,0 km/h (0 Bft)
15.12.2021 09:25 5,3 C 8,8 C 5,4 C 6,4 C 6,4 C 1,1 C 88 % 94 % 1031,6 hPa 0,0 l/m 0,3 km/h (0 Bft) SW 225 0 min 3,5 C 6,4 C 0,0 km/h (0 Bft)
15.12.2021 09:30 5,4 C 8,8 C 5,4 C 6,5 C 6,5 C 1,1 C 88 % 94 % 1031,2 hPa 0,0 l/m 0,2 km/h (0 Bft) SO 135 0 min 3,6 C 6,5 C 0,0 km/h (0 Bft)
15.12.2021 09:35 5,5 C 8,8 C 5,5 C 6,5 C 6,5 C 1,0 C 88 % 94 % 1031,2 hPa 0,0 l/m 0,0 km/h (0 Bft) O 90 0 min 3,7 C 6,5 C 0,0 km/h (0 Bft)
15.12.2021 09:40 5,5 C 8,8 C 5,5 C 6,6 C 6,6 C 1,1 C 88 % 94 % 1031,2 hPa 0,0 l/m 0,0 km/h (0 Bft) S-SW 202 0 min 3,7 C 6,6 C 0,0 km/h (0 Bft)
15.12.2021 09:45 5,5 C 8,8 C 5,5 C 6,7 C 6,7 C 1,2 C 89 % 94 % 1031,2 hPa 0,0 l/m 0,2 km/h (0 Bft) S 180 0 min 3,8 C 6,7 C 0,0 km/h (0 Bft)
15.12.2021 09:50 5,5 C 8,8 C 5,6 C 6,7 C 6,7 C 1,2 C 88 % 94 % 1031,7 hPa 0,0 l/m 0,2 km/h (0 Bft) SW 225 0 min 3,7 C 6,7 C 0,0 km/h (0 Bft)
15.12.2021 09:55 5,5 C 8,8 C 5,6 C 6,8 C 6,8 C 1,3 C 88 % 94 % 1031,7 hPa 0,0 l/m 0,0 km/h (0 Bft) W-NW 292 0 min 3,7 C 6,8 C 0,0 km/h (0 Bft)
15.12.2021 10:00 5,6 C 8,8 C 5,7 C 6,9 C 6,9 C 1,3 C 88 % 94 % 1031,7 hPa 0,0 l/m 0,2 km/h (0 Bft) SW 225 0 min 3,8 C 6,9 C 1,9 km/h (1 Bft)
15.12.2021 10:05 5,6 C 8,8 C 5,7 C 6,9 C 6,9 C 1,3 C 88 % 94 % 1031,7 hPa 0,0 l/m 0,3 km/h (0 Bft) W-SW 247 0 min 3,8 C 6,9 C 3,2 km/h (1 Bft)
15.12.2021 10:10 5,7 C 8,8 C 5,8 C 6,9 C 6,9 C 1,2 C 88 % 94 % 1031,7 hPa 0,0 l/m 0,3 km/h (0 Bft) SO 135 0 min 3,9 C 6,9 C 0,0 km/h (0 Bft)
15.12.2021 10:15 5,8 C 8,9 C 5,9 C 7,1 C 7,1 C 1,3 C 88 % 94 % 1031,7 hPa 0,0 l/m 0,3 km/h (0 Bft) W 270 0 min 4,0 C 7,1 C 0,0 km/h (0 Bft)
15.12.2021 10:20 5,8 C 8,9 C 5,9 C 7,2 C 7,2 C 1,4 C 88 % 94 % 1031,7 hPa 0,0 l/m 0,5 km/h (0 Bft) O-SO 112 0 min 4,0 C 7,2 C 2,3 km/h (1 Bft)
15.12.2021 10:25 5,9 C 8,9 C 6,0 C 7,2 C 7,2 C 1,3 C 88 % 94 % 1031,7 hPa 0,0 l/m 1,0 km/h (0 Bft) W-SW 247 0 min 4,1 C 7,2 C 3,7 km/h (1 Bft)
15.12.2021 10:30 6,0 C 8,9 C 6,0 C 7,2 C 7,2 C 1,2 C 88 % 94 % 1031,8 hPa 0,0 l/m 1,0 km/h (0 Bft) W-SW 247 0 min 4,2 C 7,2 C 0,0 km/h (0 Bft)
15.12.2021 10:35 6,0 C 8,9 C 6,1 C 7,3 C 7,3 C 1,3 C 88 % 94 % 1031,8 hPa 0,0 l/m 0,5 km/h (0 Bft) O-NO 67 0 min 4,2 C 7,3 C 0,0 km/h (0 Bft)
15.12.2021 10:40 6,1 C 8,9 C 6,1 C 7,3 C 7,3 C 1,2 C 88 % 94 % 1031,8 hPa 0,0 l/m 0,5 km/h (0 Bft) S-SO 157 0 min 4,3 C 7,3 C 2,4 km/h (1 Bft)
15.12.2021 10:45 6,3 C 8,9 C 6,1 C 7,4 C 7,4 C 1,1 C 88 % 93 % 1031,8 hPa 0,0 l/m 0,6 km/h (0 Bft) S 180 0 min 4,5 C 7,4 C 2,6 km/h (1 Bft)
15.12.2021 10:50 6,2 C 8,9 C 6,2 C 7,4 C 7,4 C 1,2 C 88 % 93 % 1031,8 hPa 0,0 l/m 0,8 km/h (0 Bft) W-SW 247 0 min 4,4 C 7,4 C 0,0 km/h (0 Bft)
15.12.2021 10:55 6,3 C 8,9 C 6,2 C 7,5 C 7,5 C 1,2 C 88 % 93 % 1031,8 hPa 0,0 l/m 0,8 km/h (0 Bft) O 90 0 min 4,5 C 7,5 C 4,2 km/h (1 Bft)
15.12.2021 11:00 6,3 C 8,9 C 6,2 C 7,5 C 7,5 C 1,2 C 88 % 93 % 1031,8 hPa 0,0 l/m 1,3 km/h (1 Bft) N-NO 22 0 min 4,5 C 7,5 C 0,0 km/h (0 Bft)
15.12.2021 11:05 6,4 C 8,9 C 6,3 C 7,5 C 7,5 C 1,1 C 88 % 93 % 1031,8 hPa 0,0 l/m 1,6 km/h (1 Bft) W-SW 247 0 min 4,6 C 7,5 C 3,7 km/h (1 Bft)
15.12.2021 11:10 6,4 C 8,9 C 6,3 C 7,5 C 7,5 C 1,1 C 88 % 93 % 1031,8 hPa 0,0 l/m 1,3 km/h (1 Bft) N 360 0 min 4,6 C 7,5 C 0,0 km/h (0 Bft)
15.12.2021 11:15 6,5 C 8,9 C 6,4 C 7,5 C 7,5 C 1,0 C 88 % 93 % 1031,8 hPa 0,0 l/m 2,7 km/h (1 Bft) SW 225 0 min 4,7 C 7,5 C 5,8 km/h (2 Bft)
15.12.2021 11:20 6,5 C 8,9 C 6,3 C 7,6 C 7,6 C 1,1 C 88 % 93 % 1031,8 hPa 0,0 l/m 2,9 km/h (1 Bft) W-SW 247 0 min 4,7 C 7,6 C 6,8 km/h (2 Bft)
15.12.2021 11:25 6,7 C 8,9 C 6,4 C 7,7 C 7,7 C 1,0 C 88 % 93 % 1031,8 hPa 0,0 l/m 2,1 km/h (1 Bft) W-SW 247 0 min 4,9 C 7,7 C 0,0 km/h (0 Bft)
15.12.2021 11:30 6,7 C 8,9 C 6,5 C 7,7 C 7,7 C 1,0 C 88 % 93 % 1031,8 hPa 0,0 l/m 1,8 km/h (1 Bft) S 180 0 min 4,9 C 7,7 C 5,0 km/h (1 Bft)
15.12.2021 11:35 6,7 C 9,0 C 6,5 C 7,7 C 7,7 C 1,0 C 88 % 93 % 1031,8 hPa 0,0 l/m 1,4 km/h (1 Bft) W-SW 247 0 min 4,9 C 7,7 C 8,4 km/h (2 Bft)
15.12.2021 11:40 6,8 C 9,0 C 6,6 C 7,7 C 7,7 C 0,9 C 88 % 93 % 1031,8 hPa 0,0 l/m 2,1 km/h (1 Bft) S 180 0 min 5,0 C 7,7 C 3,4 km/h (1 Bft)
15.12.2021 11:45 6,9 C 9,0 C 6,6 C 7,8 C 7,8 C 0,9 C 88 % 93 % 1031,8 hPa 0,0 l/m 2,6 km/h (1 Bft) SO 135 0 min 5,1 C 7,8 C 0,0 km/h (0 Bft)
15.12.2021 11:50 6,8 C 9,0 C 6,6 C 7,8 C 7,8 C 1,0 C 88 % 93 % 1031,7 hPa 0,0 l/m 2,1 km/h (1 Bft) S-SO 157 0 min 5,0 C 7,8 C 5,1 km/h (1 Bft)
15.12.2021 11:55 6,9 C 9,0 C 6,6 C 7,8 C 7,8 C 0,9 C 88 % 93 % 1031,7 hPa 0,0 l/m 2,4 km/h (1 Bft) SO 135 0 min 5,1 C 7,8 C 9,3 km/h (2 Bft)
15.12.2021 12:00 6,9 C 9,0 C 6,6 C 7,8 C 7,8 C 0,9 C 88 % 93 % 1031,7 hPa 0,0 l/m 3,2 km/h (1 Bft) S-SW 202 0 min 5,1 C 7,8 C 3,7 km/h (1 Bft)
15.12.2021 12:05 6,9 C 9,0 C 6,6 C 7,8 C 7,8 C 0,9 C 88 % 93 % 1031,7 hPa 0,0 l/m 3,2 km/h (1 Bft) SW 225 0 min 5,1 C 7,8 C 5,5 km/h (1 Bft)
15.12.2021 12:10 6,9 C 9,0 C 6,6 C 7,7 C 7,7 C 0,8 C 88 % 93 % 1031,3 hPa 0,0 l/m 2,9 km/h (1 Bft) SW 225 0 min 5,1 C 7,7 C 3,2 km/h (1 Bft)
15.12.2021 12:15 7,0 C 9,0 C 6,6 C 7,6 C 7,6 C 0,6 C 88 % 93 % 1031,3 hPa 0,0 l/m 3,4 km/h (1 Bft) SW 225 0 min 5,2 C 7,6 C 10,5 km/h (2 Bft)
15.12.2021 12:20 6,9 C 9,0 C 6,6 C 7,6 C 7,6 C 0,7 C 88 % 93 % 1031,3 hPa 0,0 l/m 3,7 km/h (1 Bft) SW 225 0 min 5,1 C 7,6 C 0,0 km/h (0 Bft)
15.12.2021 12:25 7,0 C 9,0 C 6,6 C 7,7 C 7,7 C 0,7 C 88 % 93 % 1031,3 hPa 0,0 l/m 3,7 km/h (1 Bft) W-SW 247 0 min 5,2 C 7,7 C 4,2 km/h (1 Bft)
15.12.2021 12:30 7,0 C 9,0 C 6,7 C 7,7 C 7,7 C 0,7 C 88 % 93 % 1031,4 hPa 0,0 l/m 2,3 km/h (1 Bft) SW 225 0 min 5,2 C 7,7 C 1,8 km/h (1 Bft)
15.12.2021 12:35 7,1 C 9,0 C 6,7 C 7,8 C 7,8 C 0,7 C 88 % 93 % 1031,4 hPa 0,0 l/m 1,6 km/h (1 Bft) SW 225 0 min 5,2 C 7,8 C 0,0 km/h (0 Bft)
15.12.2021 12:40 7,1 C 9,0 C 6,7 C 7,9 C 7,9 C 0,8 C 88 % 93 % 1031,4 hPa 0,0 l/m 1,6 km/h (1 Bft) W-SW 247 0 min 5,2 C 7,9 C 3,5 km/h (1 Bft)
15.12.2021 12:45 7,1 C 9,0 C 6,8 C 7,9 C 7,9 C 0,8 C 88 % 93 % 1031,4 hPa 0,0 l/m 2,1 km/h (1 Bft) NW 315 0 min 5,2 C 7,9 C 6,1 km/h (2 Bft)
15.12.2021 12:50 7,0 C 9,0 C 6,8 C 7,9 C 7,9 C 0,9 C 88 % 93 % 1032,0 hPa 0,0 l/m 2,9 km/h (1 Bft) SW 225 0 min 5,2 C 7,9 C 5,0 km/h (1 Bft)
15.12.2021 12:55 7,0 C 9,0 C 6,7 C 7,9 C 7,9 C 0,9 C 88 % 93 % 1032,0 hPa 0,0 l/m 2,7 km/h (1 Bft) W-SW 247 0 min 5,2 C 7,9 C 3,5 km/h (1 Bft)
15.12.2021 13:00 7,1 C 9,1 C 6,8 C 7,9 C 7,9 C 0,8 C 88 % 93 % 1032,0 hPa 0,0 l/m 2,9 km/h (1 Bft) S-SW 202 0 min 5,2 C 7,9 C 2,4 km/h (1 Bft)
15.12.2021 13:05 7,0 C 9,1 C 6,8 C 7,8 C 7,8 C 0,8 C 88 % 93 % 1032,0 hPa 0,0 l/m 3,7 km/h (1 Bft) SW 225 0 min 5,2 C 7,8 C 7,6 km/h (2 Bft)
15.12.2021 13:10 7,0 C 9,1 C 6,9 C 7,8 C 7,8 C 0,8 C 88 % 93 % 1031,8 hPa 0,0 l/m 3,7 km/h (1 Bft) W-SW 247 0 min 5,2 C 7,8 C 4,0 km/h (1 Bft)
15.12.2021 13:15 7,1 C 9,1 C 6,9 C 7,9 C 7,9 C 0,8 C 88 % 93 % 1031,8 hPa 0,0 l/m 3,4 km/h (1 Bft) W-SW 247 0 min 5,2 C 7,9 C 4,0 km/h (1 Bft)
15.12.2021 13:20 7,1 C 9,1 C 6,9 C 7,9 C 7,9 C 0,8 C 88 % 93 % 1031,8 hPa 0,0 l/m 2,7 km/h (1 Bft) SW 225 0 min 5,2 C 7,9 C 5,5 km/h (1 Bft)
15.12.2021 13:25 7,1 C 9,1 C 7,0 C 8,1 C 8,1 C 1,0 C 88 % 93 % 1031,8 hPa 0,0 l/m 2,4 km/h (1 Bft) SW 225 0 min 5,2 C 8,1 C 3,5 km/h (1 Bft)
15.12.2021 13:30 7,1 C 9,1 C 7,1 C 8,2 C 8,2 C 1,1 C 88 % 93 % 1031,8 hPa 0,0 l/m 1,8 km/h (1 Bft) W-SW 247 0 min 5,2 C 8,2 C 0,0 km/h (0 Bft)
15.12.2021 13:35 7,2 C 9,1 C 7,2 C 8,4 C 8,4 C 1,2 C 88 % 93 % 1031,8 hPa 0,0 l/m 1,3 km/h (1 Bft) W-NW 292 0 min 5,3 C 8,4 C 0,0 km/h (0 Bft)
15.12.2021 13:40 7,2 C 9,1 C 7,2 C 8,5 C 8,5 C 1,3 C 88 % 93 % 1031,8 hPa 0,0 l/m 1,1 km/h (1 Bft) S 180 0 min 5,3 C 8,5 C 0,0 km/h (0 Bft)
15.12.2021 13:45 7,3 C 9,1 C 7,3 C 8,7 C 8,7 C 1,4 C 88 % 93 % 1031,8 hPa 0,0 l/m 0,5 km/h (0 Bft) W-NW 292 0 min 5,4 C 8,7 C 1,9 km/h (1 Bft)
15.12.2021 13:50 7,5 C 9,1 C 7,3 C 8,8 C 8,8 C 1,3 C 88 % 93 % 1031,1 hPa 0,0 l/m 0,3 km/h (0 Bft) W-SW 247 0 min 5,6 C 8,8 C 0,0 km/h (0 Bft)
15.12.2021 13:55 7,4 C 9,1 C 7,4 C 8,9 C 8,9 C 1,5 C 88 % 93 % 1031,1 hPa 0,0 l/m 0,6 km/h (0 Bft) W 270 0 min 5,5 C 8,9 C 4,2 km/h (1 Bft)
15.12.2021 14:00 7,5 C 9,2 C 7,4 C 8,9 C 8,9 C 1,4 C 88 % 93 % 1031,1 hPa 0,0 l/m 1,1 km/h (1 Bft) SW 225 0 min 5,6 C 8,9 C 6,4 km/h (2 Bft)
15.12.2021 14:05 7,6 C 9,2 C 7,5 C 8,9 C 8,9 C 1,3 C 88 % 93 % 1031,1 hPa 0,0 l/m 1,8 km/h (1 Bft) S-SO 157 0 min 5,7 C 8,9 C 2,3 km/h (1 Bft)
15.12.2021 14:10 7,6 C 9,2 C 7,5 C 9,0 C 9,0 C 1,4 C 88 % 93 % 1031,1 hPa 0,0 l/m 2,6 km/h (1 Bft) W-SW 247 0 min 5,7 C 9,0 C 3,9 km/h (1 Bft)
15.12.2021 14:15 7,7 C 9,2 C 7,6 C 9,1 C 9,1 C 1,4 C 88 % 93 % 1031,1 hPa 0,0 l/m 2,1 km/h (1 Bft) SW 225 0 min 5,8 C 9,1 C 0,0 km/h (0 Bft)
15.12.2021 14:20 7,9 C 9,2 C 7,7 C 9,2 C 9,2 C 1,3 C 88 % 93 % 1031,1 hPa 0,0 l/m 1,0 km/h (0 Bft) SO 135 0 min 6,0 C 9,2 C 0,0 km/h (0 Bft)
15.12.2021 14:25 7,8 C 9,2 C 7,7 C 9,1 C 9,1 C 1,3 C 88 % 93 % 1031,1 hPa 0,0 l/m 0,5 km/h (0 Bft) W-SW 247 0 min 5,9 C 9,1 C 0,0 km/h (0 Bft)
15.12.2021 14:30 7,9 C 9,2 C 7,6 C 9,1 C 9,1 C 1,2 C 88 % 93 % 1031,6 hPa 0,0 l/m 0,5 km/h (0 Bft) S 180 0 min 6,0 C 9,1 C 0,0 km/h (0 Bft)
15.12.2021 14:35 7,9 C 9,2 C 7,7 C 9,1 C 9,1 C 1,2 C 88 % 93 % 1031,6 hPa 0,0 l/m 0,6 km/h (0 Bft) SW 225 0 min 6,0 C 9,1 C 0,0 km/h (0 Bft)
15.12.2021 14:40 8,0 C 9,2 C 7,8 C 9,1 C 9,1 C 1,1 C 88 % 93 % 1031,6 hPa 0,0 l/m 0,3 km/h (0 Bft) S-SO 157 0 min 6,1 C 9,1 C 0,0 km/h (0 Bft)
15.12.2021 14:45 8,0 C 9,2 C 7,7 C 9,1 C 9,1 C 1,1 C 88 % 93 % 1031,6 hPa 0,0 l/m 0,3 km/h (0 Bft) SW 225 0 min 6,1 C 9,1 C 2,7 km/h (1 Bft)
15.12.2021 14:50 8,0 C 9,2 C 7,7 C 9,1 C 9,1 C 1,1 C 88 % 93 % 1031,1 hPa 0,0 l/m 0,6 km/h (0 Bft) W-SW 247 0 min 6,1 C 9,1 C 2,3 km/h (1 Bft)
15.12.2021 14:55 8,1 C 9,2 C 7,7 C 9,0 C 9,0 C 0,9 C 88 % 93 % 1031,1 hPa 0,0 l/m 1,1 km/h (1 Bft) W-SW 247 0 min 6,2 C 9,0 C 0,0 km/h (0 Bft)
15.12.2021 15:00 8,1 C 9,3 C 7,7 C 9,1 C 9,1 C 1,0 C 88 % 93 % 1031,1 hPa 0,0 l/m 1,1 km/h (1 Bft) W-SW 247 0 min 6,2 C 9,1 C 0,0 km/h (0 Bft)
15.12.2021 15:05 8,3 C 9,3 C 7,8 C 9,2 C 9,2 C 0,9 C 88 % 92 % 1031,1 hPa 0,0 l/m 0,8 km/h (0 Bft) S-SO 157 0 min 6,4 C 9,2 C 0,0 km/h (0 Bft)
15.12.2021 15:10 8,2 C 9,3 C 7,7 C 9,2 C 9,2 C 1,0 C 88 % 92 % 1030,9 hPa 0,0 l/m 0,6 km/h (0 Bft) W-SW 247 0 min 6,3 C 9,2 C 1,6 km/h (1 Bft)
15.12.2021 15:15 8,3 C 9,3 C 7,6 C 8,9 C 8,9 C 0,6 C 88 % 92 % 1030,9 hPa 0,0 l/m 0,8 km/h (0 Bft) S 180 0 min 6,4 C 8,9 C 4,3 km/h (1 Bft)
15.12.2021 15:20 8,3 C 9,3 C 7,5 C 8,7 C 8,7 C 0,4 C 88 % 92 % 1030,9 hPa 0,0 l/m 0,8 km/h (0 Bft) SO 135 0 min 6,4 C 8,7 C 0,0 km/h (0 Bft)
15.12.2021 15:25 8,2 C 9,3 C 7,5 C 8,7 C 8,7 C 0,5 C 88 % 92 % 1030,9 hPa 0,0 l/m 0,8 km/h (0 Bft) S-SO 157 0 min 6,3 C 8,7 C 4,5 km/h (1 Bft)
15.12.2021 15:30 8,2 C 9,3 C 7,5 C 8,6 C 8,6 C 0,4 C 88 % 92 % 1031,3 hPa 0,0 l/m 0,6 km/h (0 Bft) O-SO 112 0 min 6,3 C 8,6 C 0,0 km/h (0 Bft)
15.12.2021 15:35 8,1 C 9,3 C 7,4 C 8,4 C 8,4 C 0,3 C 88 % 92 % 1031,3 hPa 0,0 l/m 2,3 km/h (1 Bft) SO 135 0 min 6,2 C 8,4 C 0,0 km/h (0 Bft)
15.12.2021 15:40 8,0 C 9,3 C 7,3 C 8,4 C 8,4 C 0,4 C 88 % 92 % 1031,3 hPa 0,0 l/m 2,9 km/h (1 Bft) W-SW 247 5 min 6,1 C 8,4 C 6,1 km/h (2 Bft)
15.12.2021 15:45 8,0 C 9,3 C 7,3 C 8,2 C 8,2 C 0,2 C 88 % 92 % 1031,3 hPa 0,0 l/m 1,6 km/h (1 Bft) SO 135 0 min 6,1 C 8,2 C 2,3 km/h (1 Bft)
15.12.2021 15:50 7,9 C 9,3 C 7,2 C 8,2 C 8,2 C 0,3 C 87 % 92 % 1031,1 hPa 0,0 l/m 1,4 km/h (1 Bft) SO 135 0 min 5,9 C 8,2 C 0,0 km/h (0 Bft)
15.12.2021 15:55 7,9 C 9,3 C 7,2 C 8,2 C 8,2 C 0,3 C 87 % 92 % 1031,1 hPa 0,0 l/m 1,1 km/h (1 Bft) S-SW 202 0 min 5,9 C 8,2 C 1,6 km/h (1 Bft)
15.12.2021 16:00 7,8 C 9,3 C 7,2 C 8,1 C 8,1 C 0,3 C 87 % 92 % 1031,1 hPa 0,0 l/m 1,1 km/h (1 Bft) S 180 0 min 5,8 C 8,1 C 3,2 km/h (1 Bft)
15.12.2021 16:05 7,9 C 9,3 C 7,1 C 8,0 C 8,0 C 0,1 C 88 % 92 % 1031,1 hPa 0,0 l/m 1,0 km/h (0 Bft) S-SO 157 0 min 6,0 C 8,0 C 2,6 km/h (1 Bft)
15.12.2021 16:10 7,8 C 9,3 C 7,1 C 8,0 C 8,0 C 0,2 C 87 % 93 % 1031,5 hPa 0,0 l/m 0,8 km/h (0 Bft) SO 135 0 min 5,8 C 8,0 C 0,0 km/h (0 Bft)
15.12.2021 16:15 7,7 C 9,3 C 7,1 C 7,9 C 7,9 C 0,2 C 87 % 93 % 1031,5 hPa 0,0 l/m 0,5 km/h (0 Bft) N-NO 22 0 min 5,7 C 7,9 C 0,0 km/h (0 Bft)
15.12.2021 16:20 7,6 C 9,3 C 7,1 C 7,9 C 7,9 C 0,3 C 88 % 93 % 1031,5 hPa 0,0 l/m 0,6 km/h (0 Bft) S-SO 157 0 min 5,7 C 7,9 C 3,1 km/h (1 Bft)
15.12.2021 16:25 7,6 C 9,3 C 7,0 C 7,9 C 7,9 C 0,3 C 88 % 92 % 1031,5 hPa 0,0 l/m 0,8 km/h (0 Bft) S 180 0 min 5,7 C 7,9 C 0,0 km/h (0 Bft)
15.12.2021 16:30 7,7 C 9,3 C 7,0 C 7,8 C 7,8 C 0,1 C 88 % 92 % 1031,5 hPa 0,0 l/m 0,5 km/h (0 Bft) O-SO 112 0 min 5,8 C 7,8 C 0,0 km/h (0 Bft)
15.12.2021 16:35 7,6 C 9,3 C 6,9 C 7,7 C 7,7 C 0,1 C 88 % 92 % 1031,5 hPa 0,0 l/m 0,2 km/h (0 Bft) SO 135 0 min 5,7 C 7,7 C 0,0 km/h (0 Bft)
15.12.2021 16:40 7,6 C 9,3 C 6,9 C 7,7 C 7,7 C 0,1 C 88 % 92 % 1031,5 hPa 0,0 l/m 0,2 km/h (0 Bft) W-SW 247 0 min 5,7 C 7,7 C 0,0 km/h (0 Bft)
15.12.2021 16:45 7,6 C 9,3 C 6,9 C 7,7 C 7,7 C 0,1 C 88 % 92 % 1031,5 hPa 0,0 l/m 0,8 km/h (0 Bft) W-SW 247 0 min 5,7 C 7,7 C 2,7 km/h (1 Bft)
15.12.2021 16:50 7,5 C 9,3 C 6,9 C 7,7 C 7,7 C 0,2 C 88 % 92 % 1031,5 hPa 0,0 l/m 0,8 km/h (0 Bft) S 180 0 min 5,6 C 7,7 C 0,0 km/h (0 Bft)
15.12.2021 16:55 7,5 C 9,3 C 6,9 C 7,7 C 7,7 C 0,2 C 88 % 92 % 1031,5 hPa 0,0 l/m 0,5 km/h (0 Bft) SW 225 0 min 5,6 C 7,7 C 2,7 km/h (1 Bft)
15.12.2021 17:00 7,5 C 9,3 C 6,8 C 7,7 C 7,7 C 0,2 C 88 % 92 % 1031,5 hPa 0,0 l/m 0,2 km/h (0 Bft) SW 225 0 min 5,6 C 7,7 C 0,0 km/h (0 Bft)
15.12.2021 17:05 7,5 C 9,4 C 6,8 C 7,7 C 7,7 C 0,2 C 88 % 92 % 1031,5 hPa 0,0 l/m 0,2 km/h (0 Bft) SW 225 0 min 5,6 C 7,7 C 0,0 km/h (0 Bft)
15.12.2021 17:10 7,4 C 9,4 C 6,8 C 7,7 C 7,7 C 0,3 C 88 % 92 % 1031,8 hPa 0,0 l/m 0,2 km/h (0 Bft) W-NW 292 0 min 5,5 C 7,7 C 0,0 km/h (0 Bft)
15.12.2021 17:15 7,4 C 9,4 C 6,7 C 7,7 C 7,7 C 0,3 C 88 % 92 % 1031,8 hPa 0,0 l/m 0,2 km/h (0 Bft) S-SO 157 0 min 5,5 C 7,7 C 0,0 km/h (0 Bft)
15.12.2021 17:20 7,4 C 9,4 C 6,7 C 7,7 C 7,7 C 0,3 C 88 % 92 % 1031,8 hPa 0,0 l/m 0,2 km/h (0 Bft) SW 225 0 min 5,5 C 7,7 C 0,0 km/h (0 Bft)
15.12.2021 17:25 7,5 C 9,4 C 6,7 C 7,7 C 7,7 C 0,2 C 88 % 92 % 1031,8 hPa 0,0 l/m 0,0 km/h (0 Bft) SW 225 0 min 5,6 C 7,7 C 0,0 km/h (0 Bft)
15.12.2021 17:30 7,5 C 9,4 C 6,7 C 7,6 C 7,6 C 0,1 C 88 % 92 % 1032,3 hPa 0,0 l/m 0,0 km/h (0 Bft) S-SW 202 0 min 5,6 C 7,6 C 0,0 km/h (0 Bft)
15.12.2021 17:35 7,4 C 9,4 C 6,7 C 7,6 C 7,6 C 0,2 C 88 % 92 % 1032,3 hPa 0,0 l/m 0,0 km/h (0 Bft) SO 135 0 min 5,5 C 7,6 C 0,0 km/h (0 Bft)
15.12.2021 17:40 7,5 C 9,4 C 6,7 C 7,7 C 7,7 C 0,2 C 88 % 92 % 1032,3 hPa 0,0 l/m 0,0 km/h (0 Bft) S 180 0 min 5,6 C 7,7 C 1,8 km/h (1 Bft)
15.12.2021 17:45 7,5 C 9,4 C 6,7 C 7,6 C 7,6 C 0,1 C 88 % 92 % 1032,3 hPa 0,0 l/m 0,0 km/h (0 Bft) S-SO 157 0 min 5,6 C 7,6 C 0,0 km/h (0 Bft)
15.12.2021 17:50 7,4 C 9,4 C 6,7 C 7,5 C 7,5 C 0,1 C 88 % 92 % 1032,3 hPa 0,0 l/m 0,0 km/h (0 Bft) S-SO 157 0 min 5,5 C 7,5 C 0,0 km/h (0 Bft)
15.12.2021 17:55 7,3 C 9,4 C 6,6 C 7,4 C 7,4 C 0,1 C 88 % 92 % 1032,3 hPa 0,0 l/m 0,2 km/h (0 Bft) SO 135 0 min 5,4 C 7,4 C 0,0 km/h (0 Bft)
15.12.2021 18:00 7,3 C 9,4 C 6,6 C 7,4 C 7,4 C 0,1 C 88 % 92 % 1032,3 hPa 0,0 l/m 0,0 km/h (0 Bft) NO 45 0 min 5,4 C 7,4 C 0,0 km/h (0 Bft)
15.12.2021 18:05 7,2 C 9,4 C 6,6 C 7,4 C 7,4 C 0,2 C 88 % 92 % 1032,3 hPa 0,0 l/m 0,0 km/h (0 Bft) W-SW 247 0 min 5,3 C 7,4 C 0,0 km/h (0 Bft)
15.12.2021 18:10 7,2 C 9,4 C 6,5 C 7,3 C 7,3 C 0,1 C 88 % 92 % 1032,1 hPa 0,0 l/m 0,0 km/h (0 Bft) S-SO 157 0 min 5,3 C 7,3 C 0,0 km/h (0 Bft)
15.12.2021 18:15 7,3 C 9,4 C 6,5 C 7,4 C 7,4 C 0,1 C 88 % 92 % 1032,1 hPa 0,0 l/m 0,0 km/h (0 Bft) S-SO 157 0 min 5,4 C 7,4 C 0,0 km/h (0 Bft)
15.12.2021 18:20 7,2 C 9,4 C 6,6 C 7,4 C 7,4 C 0,2 C 88 % 92 % 1032,1 hPa 0,0 l/m 0,0 km/h (0 Bft) S 180 0 min 5,3 C 7,4 C 0,0 km/h (0 Bft)
15.12.2021 18:25 7,2 C 9,4 C 6,6 C 7,4 C 7,4 C 0,2 C 88 % 92 % 1032,1 hPa 0,0 l/m 0,0 km/h (0 Bft) SW 225 0 min 5,3 C 7,4 C 0,0 km/h (0 Bft)
15.12.2021 18:30 7,2 C 9,4 C 6,5 C 7,4 C 7,4 C 0,2 C 88 % 92 % 1032,1 hPa 0,0 l/m 0,2 km/h (0 Bft) SW 225 0 min 5,3 C 7,4 C 2,6 km/h (1 Bft)
15.12.2021 18:35 7,3 C 9,4 C 6,5 C 7,4 C 7,4 C 0,1 C 88 % 92 % 1032,1 hPa 0,0 l/m 0,3 km/h (0 Bft) W 270 0 min 5,4 C 7,4 C 3,7 km/h (1 Bft)
15.12.2021 18:40 7,3 C 9,4 C 6,5 C 7,4 C 7,4 C 0,1 C 88 % 92 % 1032,1 hPa 0,0 l/m 0,5 km/h (0 Bft) S-SW 202 0 min 5,4 C 7,4 C 1,6 km/h (1 Bft)
15.12.2021 18:45 7,3 C 9,4 C 6,4 C 7,3 C 7,3 C 0,0 C 88 % 92 % 1032,1 hPa 0,0 l/m 0,8 km/h (0 Bft) W-SW 247 0 min 5,4 C 7,3 C 0,0 km/h (0 Bft)
15.12.2021 18:50 7,3 C 9,4 C 6,4 C 7,3 C 7,3 C 0,0 C 88 % 92 % 1032,5 hPa 0,0 l/m 0,6 km/h (0 Bft) S 180 0 min 5,4 C 7,3 C 0,0 km/h (0 Bft)
15.12.2021 18:55 7,2 C 9,4 C 6,4 C 7,3 C 7,3 C 0,1 C 88 % 92 % 1032,5 hPa 0,0 l/m 0,8 km/h (0 Bft) S 180 0 min 5,3 C 7,3 C 4,2 km/h (1 Bft)
15.12.2021 19:00 7,3 C 9,4 C 6,4 C 7,4 C 7,4 C 0,1 C 88 % 92 % 1032,5 hPa 0,0 l/m 0,8 km/h (0 Bft) W-SW 247 0 min 5,4 C 7,4 C 5,1 km/h (1 Bft)
15.12.2021 19:05 7,2 C 9,4 C 6,5 C 7,5 C 7,5 C 0,3 C 88 % 92 % 1032,5 hPa 0,0 l/m 1,6 km/h (1 Bft) S 180 0 min 5,3 C 7,5 C 2,3 km/h (1 Bft)
15.12.2021 19:10 7,2 C 9,4 C 6,4 C 7,5 C 7,5 C 0,3 C 88 % 92 % 1032,2 hPa 0,0 l/m 2,1 km/h (1 Bft) W-NW 292 0 min 5,3 C 7,5 C 0,0 km/h (0 Bft)
15.12.2021 19:15 7,2 C 9,4 C 6,5 C 7,5 C 7,5 C 0,3 C 88 % 92 % 1032,2 hPa 0,0 l/m 1,8 km/h (1 Bft) S 180 0 min 5,3 C 7,5 C 0,0 km/h (0 Bft)
15.12.2021 19:20 7,2 C 9,4 C 6,5 C 7,5 C 7,5 C 0,3 C 88 % 92 % 1032,2 hPa 0,0 l/m 1,9 km/h (1 Bft) SW 225 0 min 5,3 C 7,5 C 1,6 km/h (1 Bft)
15.12.2021 19:25 7,2 C 9,4 C 6,5 C 7,5 C 7,5 C 0,3 C 88 % 92 % 1032,2 hPa 0,0 l/m 1,3 km/h (1 Bft) S 180 0 min 5,3 C 7,5 C 0,0 km/h (0 Bft)
15.12.2021 19:30 7,3 C 9,4 C 6,4 C 7,3 C 7,3 C 0,0 C 88 % 92 % 1032,1 hPa 0,0 l/m 0,6 km/h (0 Bft) S 180 0 min 5,4 C 7,3 C 0,0 km/h (0 Bft)
15.12.2021 19:35 7,2 C 9,4 C 6,4 C 7,2 C 7,2 C 0,0 C 88 % 92 % 1032,1 hPa 0,0 l/m 0,8 km/h (0 Bft) W-SW 247 0 min 5,3 C 7,2 C 3,4 km/h (1 Bft)
15.12.2021 19:40 7,2 C 9,4 C 6,3 C 7,2 C 7,2 C 0,0 C 88 % 92 % 1032,1 hPa 0,0 l/m 0,8 km/h (0 Bft) S 180 0 min 5,3 C 7,2 C 0,0 km/h (0 Bft)
15.12.2021 19:45 7,2 C 9,4 C 6,3 C 7,2 C 7,2 C 0,0 C 88 % 92 % 1032,1 hPa 0,0 l/m 0,6 km/h (0 Bft) S-SO 157 0 min 5,3 C 7,2 C 1,8 km/h (1 Bft)
15.12.2021 19:50 7,1 C 9,4 C 6,3 C 7,2 C 7,2 C 0,1 C 88 % 92 % 1032,7 hPa 0,0 l/m 1,0 km/h (0 Bft) SW 225 0 min 5,2 C 7,2 C 1,6 km/h (1 Bft)
15.12.2021 19:55 7,1 C 9,4 C 6,3 C 7,2 C 7,2 C 0,1 C 88 % 92 % 1032,7 hPa 0,0 l/m 1,6 km/h (1 Bft) SW 225 0 min 5,2 C 7,2 C 0,0 km/h (0 Bft)
15.12.2021 20:00 7,1 C 9,4 C 6,2 C 7,2 C 7,2 C 0,1 C 88 % 92 % 1032,7 hPa 0,0 l/m 1,1 km/h (1 Bft) SW 225 0 min 5,2 C 7,2 C 4,2 km/h (1 Bft)
15.12.2021 20:05 7,1 C 9,4 C 6,2 C 7,1 C 7,1 C 0,0 C 88 % 92 % 1032,7 hPa 0,0 l/m 1,3 km/h (1 Bft) SO 135 0 min 5,2 C 7,1 C 5,5 km/h (1 Bft)
15.12.2021 20:10 7,1 C 9,4 C 6,2 C 7,2 C 7,2 C 0,1 C 88 % 92 % 1032,8 hPa 0,0 l/m 1,8 km/h (1 Bft) W-SW 247 0 min 5,2 C 7,2 C 2,7 km/h (1 Bft)
15.12.2021 20:15 7,1 C 9,4 C 6,2 C 7,2 C 7,2 C 0,1 C 88 % 92 % 1032,8 hPa 0,0 l/m 2,1 km/h (1 Bft) SW 225 0 min 5,2 C 7,2 C 0,0 km/h (0 Bft)
15.12.2021 20:20 7,0 C 9,4 C 6,2 C 7,2 C 7,2 C 0,2 C 88 % 92 % 1032,8 hPa 0,0 l/m 2,1 km/h (1 Bft) S-SW 202 0 min 5,2 C 7,2 C 1,6 km/h (1 Bft)
15.12.2021 20:25 6,9 C 9,4 C 6,1 C 7,1 C 7,1 C 0,2 C 88 % 92 % 1032,8 hPa 0,0 l/m 1,4 km/h (1 Bft) S 180 0 min 5,1 C 7,1 C 1,8 km/h (1 Bft)
15.12.2021 20:30 6,9 C 9,4 C 6,1 C 7,1 C 7,1 C 0,2 C 88 % 92 % 1032,8 hPa 0,0 l/m 1,0 km/h (0 Bft) W-SW 247 0 min 5,1 C 7,1 C 0,0 km/h (0 Bft)
15.12.2021 20:35 6,8 C 9,4 C 6,0 C 7,0 C 7,0 C 0,2 C 88 % 92 % 1032,8 hPa 0,0 l/m 0,3 km/h (0 Bft) SW 225 0 min 5,0 C 7,0 C 2,4 km/h (1 Bft)
15.12.2021 20:40 6,8 C 9,4 C 6,0 C 7,0 C 7,0 C 0,2 C 88 % 92 % 1032,8 hPa 0,0 l/m 0,2 km/h (0 Bft) W 270 0 min 5,0 C 7,0 C 0,0 km/h (0 Bft)
15.12.2021 20:45 6,8 C 9,4 C 6,0 C 6,9 C 6,9 C 0,1 C 88 % 92 % 1032,8 hPa 0,0 l/m 0,2 km/h (0 Bft) SW 225 0 min 5,0 C 6,9 C 0,0 km/h (0 Bft)
15.12.2021 20:50 6,8 C 9,4 C 6,0 C 6,8 C 6,8 C 0,0 C 88 % 92 % 1032,8 hPa 0,0 l/m 0,2 km/h (0 Bft) W-SW 247 0 min 5,0 C 6,8 C 0,0 km/h (0 Bft)
15.12.2021 20:55 6,8 C 9,4 C 6,0 C 6,8 C 6,8 C 0,0 C 88 % 92 % 1032,8 hPa 0,0 l/m 0,3 km/h (0 Bft) W-SW 247 0 min 5,0 C 6,8 C 0,0 km/h (0 Bft)
15.12.2021 21:00 6,8 C 9,4 C 5,9 C 6,8 C 6,8 C 0,0 C 88 % 92 % 1032,8 hPa 0,0 l/m 0,3 km/h (0 Bft) S-SW 202 0 min 5,0 C 6,8 C 0,0 km/h (0 Bft)
15.12.2021 21:05 6,7 C 9,5 C 5,9 C 6,8 C 6,8 C 0,1 C 88 % 92 % 1032,8 hPa 0,0 l/m 0,3 km/h (0 Bft) SW 225 0 min 4,9 C 6,8 C 0,0 km/h (0 Bft)
15.12.2021 21:10 6,7 C 9,5 C 5,9 C 6,8 C 6,8 C 0,1 C 88 % 93 % 1032,8 hPa 0,0 l/m 0,2 km/h (0 Bft) SW 225 0 min 4,9 C 6,8 C 0,0 km/h (0 Bft)
15.12.2021 21:15 6,6 C 9,5 C 5,9 C 6,8 C 6,8 C 0,2 C 88 % 93 % 1032,8 hPa 0,0 l/m 0,2 km/h (0 Bft) S-SO 157 0 min 4,8 C 6,8 C 0,0 km/h (0 Bft)
15.12.2021 21:20 6,6 C 9,5 C 5,9 C 6,8 C 6,8 C 0,2 C 88 % 93 % 1032,8 hPa 0,0 l/m 0,0 km/h (0 Bft) SW 225 0 min 4,8 C 6,8 C 0,0 km/h (0 Bft)
15.12.2021 21:25 6,7 C 9,5 C 5,9 C 6,8 C 6,8 C 0,1 C 88 % 93 % 1032,8 hPa 0,0 l/m 0,0 km/h (0 Bft) O-NO 67 0 min 4,9 C 6,8 C 0,0 km/h (0 Bft)
15.12.2021 21:30 6,7 C 9,5 C 5,9 C 6,7 C 6,7 C 0,0 C 88 % 93 % 1032,8 hPa 0,0 l/m 0,0 km/h (0 Bft) S 180 0 min 4,9 C 6,7 C 0,0 km/h (0 Bft)
15.12.2021 21:35 6,7 C 9,6 C 5,8 C 6,7 C 6,7 C 0,0 C 88 % 93 % 1032,8 hPa 0,0 l/m 0,0 km/h (0 Bft) S-SO 157 0 min 4,9 C 6,7 C 2,4 km/h (1 Bft)
15.12.2021 21:40 6,6 C 9,6 C 5,8 C 6,7 C 6,7 C 0,1 C 88 % 93 % 1032,8 hPa 0,0 l/m 0,0 km/h (0 Bft) S 180 0 min 4,8 C 6,7 C 0,0 km/h (0 Bft)
15.12.2021 21:45 6,5 C 9,6 C 5,8 C 6,7 C 6,7 C 0,2 C 88 % 93 % 1032,8 hPa 0,0 l/m 0,2 km/h (0 Bft) O 90 0 min 4,7 C 6,7 C 0,0 km/h (0 Bft)
15.12.2021 21:50 6,5 C 9,6 C 5,8 C 6,7 C 6,7 C 0,2 C 88 % 93 % 1032,6 hPa 0,0 l/m 0,3 km/h (0 Bft) O-SO 112 0 min 4,7 C 6,7 C 0,0 km/h (0 Bft)
15.12.2021 21:55 6,5 C 9,6 C 5,8 C 6,7 C 6,7 C 0,2 C 88 % 93 % 1032,6 hPa 0,0 l/m 0,3 km/h (0 Bft) S 180 0 min 4,7 C 6,7 C 0,0 km/h (0 Bft)
15.12.2021 22:00 6,5 C 9,6 C 5,8 C 6,7 C 6,7 C 0,2 C 88 % 93 % 1032,6 hPa 0,0 l/m 0,3 km/h (0 Bft) O-NO 67 0 min 4,7 C 6,7 C 0,0 km/h (0 Bft)
15.12.2021 22:05 6,4 C 9,6 C 5,8 C 6,7 C 6,7 C 0,3 C 88 % 93 % 1032,6 hPa 0,0 l/m 0,3 km/h (0 Bft) S 180 0 min 4,6 C 6,7 C 0,0 km/h (0 Bft)
15.12.2021 22:10 6,5 C 9,6 C 5,7 C 6,7 C 6,7 C 0,2 C 88 % 93 % 1032,6 hPa 0,0 l/m 0,2 km/h (0 Bft) S-SO 157 0 min 4,7 C 6,7 C 0,0 km/h (0 Bft)
15.12.2021 22:15 6,4 C 9,6 C 5,7 C 6,6 C 6,6 C 0,2 C 88 % 93 % 1032,6 hPa 0,0 l/m 0,0 km/h (0 Bft) SW 225 0 min 4,6 C 6,6 C 0,0 km/h (0 Bft)
15.12.2021 22:20 6,5 C 9,6 C 5,6 C 6,6 C 6,6 C 0,1 C 88 % 93 % 1032,6 hPa 0,0 l/m 0,0 km/h (0 Bft) W-SW 247 0 min 4,7 C 6,6 C 0,0 km/h (0 Bft)
15.12.2021 22:25 6,4 C 9,6 C 5,6 C 6,5 C 6,5 C 0,1 C 88 % 93 % 1032,6 hPa 0,0 l/m 0,0 km/h (0 Bft) W-SW 247 0 min 4,6 C 6,5 C 0,0 km/h (0 Bft)
15.12.2021 22:30 6,4 C 9,6 C 5,7 C 6,6 C 6,6 C 0,2 C 88 % 93 % 1033,1 hPa 0,0 l/m 0,0 km/h (0 Bft) S 180 0 min 4,6 C 6,6 C 0,0 km/h (0 Bft)
15.12.2021 22:35 6,4 C 9,6 C 5,7 C 6,6 C 6,6 C 0,2 C 88 % 93 % 1033,1 hPa 0,0 l/m 0,0 km/h (0 Bft) SO 135 0 min 4,6 C 6,6 C 0,0 km/h (0 Bft)
15.12.2021 22:40 6,4 C 9,6 C 5,7 C 6,6 C 6,6 C 0,2 C 88 % 93 % 1033,1 hPa 0,0 l/m 0,0 km/h (0 Bft) SO 135 0 min 4,6 C 6,6 C 0,0 km/h (0 Bft)
15.12.2021 22:45 6,4 C 9,6 C 5,6 C 6,6 C 6,6 C 0,2 C 88 % 93 % 1033,1 hPa 0,0 l/m 0,0 km/h (0 Bft) O-NO 67 0 min 4,6 C 6,6 C 0,0 km/h (0 Bft)
15.12.2021 22:50 6,3 C 9,6 C 5,6 C 6,6 C 6,6 C 0,3 C 88 % 93 % 1033,1 hPa 0,0 l/m 0,0 km/h (0 Bft) O 90 0 min 4,5 C 6,6 C 0,0 km/h (0 Bft)
15.12.2021 22:55 6,3 C 9,6 C 5,6 C 6,5 C 6,5 C 0,2 C 88 % 93 % 1033,1 hPa 0,0 l/m 0,0 km/h (0 Bft) O-NO 67 0 min 4,5 C 6,5 C 0,0 km/h (0 Bft)
15.12.2021 23:00 6,3 C 9,6 C 5,5 C 6,4 C 6,4 C 0,1 C 88 % 93 % 1033,1 hPa 0,0 l/m 0,0 km/h (0 Bft) O-SO 112 0 min 4,5 C 6,4 C 0,0 km/h (0 Bft)
15.12.2021 23:05 6,2 C 9,6 C 5,5 C 6,5 C 6,5 C 0,3 C 88 % 93 % 1033,1 hPa 0,0 l/m 0,0 km/h (0 Bft) O-SO 112 0 min 4,4 C 6,5 C 0,0 km/h (0 Bft)
15.12.2021 23:10 6,3 C 9,6 C 5,5 C 6,4 C 6,4 C 0,1 C 88 % 93 % 1033,1 hPa 0,0 l/m 0,0 km/h (0 Bft) O-SO 112 0 min 4,5 C 6,4 C 0,0 km/h (0 Bft)
15.12.2021 23:15 6,3 C 9,6 C 5,5 C 6,4 C 6,4 C 0,1 C 88 % 93 % 1033,1 hPa 0,0 l/m 0,0 km/h (0 Bft) S 180 0 min 4,5 C 6,4 C 0,0 km/h (0 Bft)
15.12.2021 23:20 6,3 C 9,6 C 5,5 C 6,4 C 6,4 C 0,1 C 88 % 93 % 1033,1 hPa 0,0 l/m 0,0 km/h (0 Bft) W-SW 247 0 min 4,5 C 6,4 C 0,0 km/h (0 Bft)
15.12.2021 23:25 6,3 C 9,6 C 5,5 C 6,5 C 6,5 C 0,2 C 88 % 93 % 1033,1 hPa 0,0 l/m 0,0 km/h (0 Bft) W-SW 247 0 min 4,5 C 6,5 C 0,0 km/h (0 Bft)
15.12.2021 23:30 6,3 C 9,6 C 5,5 C 6,5 C 6,5 C 0,2 C 88 % 93 % 1033,1 hPa 0,0 l/m 0,0 km/h (0 Bft) W-SW 247 0 min 4,5 C 6,5 C 0,0 km/h (0 Bft)
15.12.2021 23:35 6,3 C 9,6 C 5,5 C 6,5 C 6,5 C 0,2 C 88 % 93 % 1033,1 hPa 0,0 l/m 0,0 km/h (0 Bft) S-SW 202 0 min 4,5 C 6,5 C 0,0 km/h (0 Bft)
15.12.2021 23:40 6,3 C 9,6 C 5,5 C 6,6 C 6,6 C 0,3 C 88 % 93 % 1033,1 hPa 0,0 l/m 0,2 km/h (0 Bft) S 180 0 min 4,5 C 6,6 C 3,1 km/h (1 Bft)
15.12.2021 23:45 6,3 C 9,6 C 5,6 C 6,7 C 6,7 C 0,4 C 88 % 93 % 1033,1 hPa 0,0 l/m 0,3 km/h (0 Bft) S-SO 157 0 min 4,5 C 6,7 C 0,0 km/h (0 Bft)
15.12.2021 23:50 6,4 C 9,6 C 5,7 C 6,7 C 6,7 C 0,3 C 88 % 93 % 1032,4 hPa 0,0 l/m 0,5 km/h (0 Bft) S 180 0 min 4,6 C 6,7 C 1,8 km/h (1 Bft)
15.12.2021 23:55 6,4 C 9,6 C 5,7 C 6,7 C 6,7 C 0,3 C 88 % 93 % 1032,4 hPa 0,0 l/m 0,2 km/h (0 Bft) S 180 0 min 4,6 C 6,7 C 0,0 km/h (0 Bft)
_ Min-Zeit 04:05 04:45 03:50 03:50 03:50 18:45 15:50 15:05 00:00 - 00:20 - - - 04:05 03:50 00:00
Minimum _ 3,1 C 8,8 C 3,9 C 4,7 C 4,7 C 0,0 C 87 % 92 % 1029,6 hPa - 0,0 km/h (0 Bft) - - - 1,3 C 4,7 C 0,0 km/h (0 Bft)
_ Max-Zeit 15:05 21:35 14:40 14:20 14:20 05:05 08:30 00:00 22:30 00:00 12:20 - - 08:20 15:05 14:20 12:15
Maximum _ 8,3 C 9,6 C 7,8 C 9,2 C 9,2 C 2,3 C 89 % 95 % 1033,1 hPa 0,0 l/m 3,7 km/h
SW (1 Bft)
- - 5 min 6,4 C 9,2 C 10,5 km/h
SW (2 Bft)
Durchschnitt _ 5,7 C 9,1 C 5,7 C 6,7 C 6,7 C 1,0 C 88 % 93 % 1031,3 hPa #0,0 l/m 0,8 km/h (0 Bft) SW - #1:00 h 3,9 C 6,7 C 1,4 km/h (1 Bft)
2021 www.wetterstation-wechselburg.de